createdAt,value
2019-05-06T00:01:04.636Z,9.39
2019-05-06T00:02:13.667Z,9.27
2019-05-06T00:03:21.503Z,9.33
2019-05-06T00:04:29.750Z,9.38
2019-05-06T00:05:37.813Z,9.41
2019-05-06T00:06:46.097Z,9.34
2019-05-06T00:07:54.907Z,9.38
2019-05-06T00:09:03.961Z,9.36
2019-05-06T00:10:27.656Z,9.29
2019-05-06T00:11:35.697Z,9.32
2019-05-06T00:12:44.490Z,9.27
2019-05-06T00:13:54.340Z,9.30
2019-05-06T00:15:03.976Z,9.19
2019-05-06T00:16:14.335Z,9.05
2019-05-06T00:17:23.949Z,8.93
2019-05-06T00:18:34.243Z,8.98
2019-05-06T00:19:41.458Z,8.98
2019-05-06T00:20:49.418Z,8.90
2019-05-06T00:21:57.468Z,8.77
2019-05-06T00:23:07.030Z,8.92
2019-05-06T00:24:15.053Z,8.97
2019-05-06T00:25:40.702Z,8.99
2019-05-06T00:26:57.265Z,9.02
2019-05-06T00:28:21.455Z,8.96
2019-05-06T00:29:30.340Z,9.06
2019-05-06T00:30:40.136Z,9.06
2019-05-06T00:31:48.357Z,9.00
2019-05-06T00:32:56.189Z,9.10
2019-05-06T00:34:04.565Z,9.11
2019-05-06T00:35:14.230Z,9.13
2019-05-06T00:36:23.725Z,9.21
2019-05-06T00:37:32.019Z,9.13
2019-05-06T00:38:41.108Z,9.10
2019-05-06T00:39:48.905Z,9.08
2019-05-06T00:41:01.223Z,9.07
2019-05-06T00:42:20.056Z,9.10
2019-05-06T00:43:27.917Z,9.05
2019-05-06T00:44:35.779Z,9.03
2019-05-06T00:45:44.379Z,9.11
2019-05-06T00:46:54.473Z,9.09
2019-05-06T00:48:04.507Z,9.10
2019-05-06T00:49:11.935Z,8.99
2019-05-06T00:50:19.927Z,8.83
2019-05-06T00:51:28.005Z,8.78
2019-05-06T00:52:37.010Z,8.79
2019-05-06T00:53:50.366Z,8.78
2019-05-06T00:54:58.538Z,8.97
2019-05-06T00:56:06.490Z,9.00
2019-05-06T00:57:14.548Z,8.98
2019-05-06T00:58:23.815Z,9.08
2019-05-06T00:59:34.413Z,9.10
2019-05-06T01:00:44.165Z,9.04
2019-05-06T01:01:53.740Z,8.96
2019-05-06T01:03:01.487Z,8.97
2019-05-06T01:04:09.472Z,8.98
2019-05-06T01:05:18.391Z,9.07
2019-05-06T01:06:26.718Z,9.05
2019-05-06T01:07:34.830Z,9.03
2019-05-06T01:08:44.020Z,9.01
2019-05-06T01:09:54.195Z,8.96
2019-05-06T01:11:04.047Z,8.92
2019-05-06T01:12:14.218Z,8.89
2019-05-06T01:13:35.600Z,8.80
2019-05-06T01:14:45.587Z,8.89
2019-05-06T01:15:54.752Z,8.89
2019-05-06T01:17:03.980Z,8.80
2019-05-06T01:18:13.801Z,8.79
2019-05-06T01:19:23.542Z,8.82
2019-05-06T01:20:33.787Z,8.77
2019-05-06T01:21:41.628Z,8.81
2019-05-06T01:22:50.333Z,8.84
2019-05-06T01:23:58.428Z,8.68
2019-05-06T01:25:08.194Z,8.72
2019-05-06T01:26:18.315Z,8.70
2019-05-06T01:27:26.376Z,8.72
2019-05-06T01:28:34.429Z,8.76
2019-05-06T01:29:44.118Z,8.66
2019-05-06T01:30:53.563Z,8.69
2019-05-06T01:32:03.552Z,8.70
2019-05-06T01:33:11.575Z,8.73
2019-05-06T01:34:19.416Z,8.75
2019-05-06T01:35:27.231Z,8.78
2019-05-06T01:36:35.328Z,8.73
2019-05-06T01:37:45.079Z,8.66
2019-05-06T01:39:11.134Z,8.63
2019-05-06T01:40:36.380Z,8.67
2019-05-06T01:41:44.736Z,8.70
2019-05-06T01:42:54.460Z,8.58
2019-05-06T01:44:04.220Z,8.72
2019-05-06T01:45:14.170Z,8.71
2019-05-06T01:46:24.289Z,8.77
2019-05-06T01:47:34.448Z,8.79
2019-05-06T01:48:48.746Z,8.74
2019-05-06T01:49:56.884Z,8.83
2019-05-06T01:51:05.075Z,8.91
2019-05-06T01:52:14.714Z,8.87
2019-05-06T01:53:24.148Z,8.77
2019-05-06T01:54:34.161Z,8.69
2019-05-06T01:55:43.685Z,8.73
2019-05-06T01:56:53.674Z,8.67
2019-05-06T01:58:01.632Z,8.65
2019-05-06T01:59:09.813Z,8.73
2019-05-06T02:00:17.852Z,8.89
2019-05-06T02:01:26.075Z,8.82
2019-05-06T02:02:34.339Z,8.81
2019-05-06T02:03:44.159Z,8.90
2019-05-06T02:04:53.520Z,8.93
2019-05-06T02:06:01.623Z,8.90
2019-05-06T02:07:09.740Z,8.84
2019-05-06T02:08:17.802Z,8.87
2019-05-06T02:09:25.719Z,8.94
2019-05-06T02:10:34.945Z,8.96
2019-05-06T02:11:44.441Z,8.97
2019-05-06T02:12:54.060Z,8.94
2019-05-06T02:14:04.590Z,8.90
2019-05-06T02:15:14.470Z,8.96
2019-05-06T02:16:23.903Z,8.89
2019-05-06T02:17:31.527Z,8.96
2019-05-06T02:18:39.648Z,9.04
2019-05-06T02:19:47.943Z,9.07
2019-05-06T02:21:05.435Z,8.94
2019-05-06T02:22:15.455Z,8.96
2019-05-06T02:23:37.264Z,9.02
2019-05-06T02:24:46.796Z,8.94
2019-05-06T02:25:55.543Z,9.05
2019-05-06T02:27:04.505Z,9.06
2019-05-06T02:28:14.309Z,9.04
2019-05-06T02:29:27.068Z,9.13
2019-05-06T02:30:45.421Z,9.09
2019-05-06T02:32:16.171Z,9.03
2019-05-06T02:33:17.885Z,9.02
2019-05-06T02:34:46.033Z,9.03
2019-05-06T02:36:14.918Z,9.00
2019-05-06T02:37:35.075Z,9.05
2019-05-06T02:38:50.439Z,9.00
2019-05-06T02:39:53.752Z,9.01
2019-05-06T02:41:03.439Z,9.03
2019-05-06T02:42:13.037Z,9.03
2019-05-06T02:43:23.226Z,9.06
2019-05-06T02:44:33.616Z,9.05
2019-05-06T02:45:43.292Z,9.01
2019-05-06T02:46:53.372Z,8.95
2019-05-06T02:48:09.214Z,8.95
2019-05-06T02:49:36.714Z,8.95
2019-05-06T02:50:44.436Z,8.95
2019-05-06T02:51:53.434Z,8.99
2019-05-06T02:53:02.678Z,8.96
2019-05-06T02:54:13.388Z,8.96
2019-05-06T02:55:23.387Z,8.93
2019-05-06T02:56:33.351Z,8.91
2019-05-06T02:57:43.672Z,8.89
2019-05-06T02:58:53.529Z,8.84
2019-05-06T03:00:04.755Z,8.80
2019-05-06T03:01:13.381Z,8.89
2019-05-06T03:02:35.581Z,8.94
2019-05-06T03:03:29.358Z,8.92
2019-05-06T03:04:37.260Z,8.94
2019-05-06T03:05:45.283Z,8.88
2019-05-06T03:06:53.466Z,8.95
2019-05-06T03:08:03.274Z,8.96
2019-05-06T03:09:13.476Z,8.93
2019-05-06T03:10:24.664Z,8.94
2019-05-06T03:11:33.196Z,8.91
2019-05-06T03:12:43.039Z,8.89
2019-05-06T03:13:53.505Z,8.88
2019-05-06T03:15:03.330Z,8.78
2019-05-06T03:16:10.312Z,8.84
2019-05-06T03:17:18.511Z,8.87
2019-05-06T03:18:26.489Z,8.83
2019-05-06T03:19:36.328Z,8.87
2019-05-06T03:20:57.488Z,8.92
2019-05-06T03:22:13.155Z,8.92
2019-05-06T03:23:24.670Z,8.90
2019-05-06T03:24:37.340Z,8.89
2019-05-06T03:25:48.054Z,8.85
2019-05-06T03:26:56.825Z,8.81
2019-05-06T03:28:05.601Z,8.87
2019-05-06T03:29:14.003Z,8.76
2019-05-06T03:30:25.457Z,8.79
2019-05-06T03:31:36.506Z,8.72
2019-05-06T03:33:21.552Z,8.71
2019-05-06T03:34:16.195Z,8.69
2019-05-06T03:35:25.764Z,8.66
2019-05-06T03:36:23.693Z,8.67
2019-05-06T03:37:23.888Z,8.58
2019-05-06T03:38:33.501Z,8.65
2019-05-06T03:39:43.430Z,8.68
2019-05-06T03:40:53.796Z,8.69
2019-05-06T03:42:04.221Z,8.67
2019-05-06T03:43:13.669Z,8.73
2019-05-06T03:44:23.627Z,8.80
2019-05-06T03:45:33.575Z,8.70
2019-05-06T03:46:45.883Z,8.62
2019-05-06T03:48:05.509Z,8.55
2019-05-06T03:49:13.511Z,8.58
2019-05-06T03:50:24.053Z,8.53
2019-05-06T03:51:34.287Z,8.52
2019-05-06T03:52:43.010Z,8.63
2019-05-06T03:53:54.319Z,8.64
2019-05-06T03:55:03.671Z,8.69
2019-05-06T03:56:16.852Z,8.75
2019-05-06T03:57:24.364Z,8.83
2019-05-06T03:58:35.998Z,8.87
2019-05-06T03:59:45.149Z,8.90
2019-05-06T04:00:54.975Z,8.79
2019-05-06T04:02:05.165Z,8.79
2019-05-06T04:03:14.050Z,8.81
2019-05-06T04:04:23.355Z,8.79
2019-05-06T04:05:33.424Z,8.77
2019-05-06T04:06:43.651Z,8.77
2019-05-06T04:07:53.364Z,8.81
2019-05-06T04:09:03.632Z,8.73
2019-05-06T04:10:13.632Z,8.74
2019-05-06T04:11:23.962Z,8.74
2019-05-06T04:12:34.988Z,8.71
2019-05-06T04:13:43.669Z,8.73
2019-05-06T04:14:53.983Z,8.79
2019-05-06T04:16:08.398Z,8.75
2019-05-06T04:17:24.562Z,8.79
2019-05-06T04:18:37.199Z,8.85
2019-05-06T04:19:46.953Z,8.84
2019-05-06T04:20:57.971Z,8.79
2019-05-06T04:22:07.718Z,8.82
2019-05-06T04:23:17.773Z,8.84
2019-05-06T04:24:25.857Z,8.85
2019-05-06T04:25:39.540Z,8.86
2019-05-06T04:26:58.123Z,8.87
2019-05-06T04:28:08.298Z,8.91
2019-05-06T04:29:17.231Z,8.82
2019-05-06T04:30:25.069Z,8.71
2019-05-06T04:31:33.873Z,8.82
2019-05-06T04:32:43.383Z,8.84
2019-05-06T04:34:08.684Z,8.86
2019-05-06T04:35:04.448Z,8.85
2019-05-06T04:36:13.237Z,8.82
2019-05-06T04:37:23.917Z,8.69
2019-05-06T04:38:33.502Z,8.60
2019-05-06T04:39:43.394Z,8.70
2019-05-06T04:40:53.795Z,8.75
2019-05-06T04:42:03.547Z,8.74
2019-05-06T04:43:13.367Z,8.60
2019-05-06T04:44:23.765Z,8.72
2019-05-06T04:45:33.737Z,8.77
2019-05-06T04:46:44.294Z,8.87
2019-05-06T04:47:53.724Z,8.92
2019-05-06T04:49:04.060Z,8.94
2019-05-06T04:50:13.340Z,8.76
2019-05-06T04:51:24.816Z,8.87
2019-05-06T04:52:34.163Z,8.82
2019-05-06T04:53:44.011Z,8.79
2019-05-06T04:54:53.382Z,8.83
2019-05-06T04:56:03.896Z,8.88
2019-05-06T04:57:12.901Z,8.92
2019-05-06T04:58:23.277Z,8.93
2019-05-06T04:59:32.566Z,9.02
2019-05-06T05:00:44.085Z,9.00
2019-05-06T05:01:53.193Z,8.92
2019-05-06T05:03:03.042Z,8.88
2019-05-06T05:04:24.549Z,8.90
2019-05-06T05:05:22.996Z,9.01
2019-05-06T05:06:32.863Z,9.03
2019-05-06T05:07:42.579Z,8.99
2019-05-06T05:08:53.036Z,8.94
2019-05-06T05:10:03.606Z,8.98
2019-05-06T05:11:23.766Z,9.05
2019-05-06T05:12:45.611Z,9.00
2019-05-06T05:13:55.703Z,9.04
2019-05-06T05:15:05.612Z,9.04
2019-05-06T05:16:22.281Z,9.11
2019-05-06T05:17:33.098Z,9.00
2019-05-06T05:18:54.794Z,9.13
2019-05-06T05:20:03.162Z,9.02
2019-05-06T05:21:11.903Z,9.03
2019-05-06T05:22:21.847Z,9.07
2019-05-06T05:23:31.824Z,9.07
2019-05-06T05:24:39.681Z,9.14
2019-05-06T05:25:48.068Z,9.19
2019-05-06T05:26:56.419Z,9.20
2019-05-06T05:28:04.613Z,9.24
2019-05-06T05:29:12.842Z,9.18
2019-05-06T05:30:21.984Z,9.27
2019-05-06T05:31:30.276Z,9.19
2019-05-06T05:32:38.228Z,9.24
2019-05-06T05:33:46.414Z,9.26
2019-05-06T05:34:54.682Z,9.27
2019-05-06T05:36:02.566Z,9.20
2019-05-06T05:37:12.141Z,9.10
2019-05-06T05:38:22.766Z,9.17
2019-05-06T05:39:30.583Z,9.03
2019-05-06T05:40:39.041Z,9.05
2019-05-06T05:41:47.247Z,9.13
2019-05-06T05:43:06.337Z,8.85
2019-05-06T05:44:18.933Z,8.89
2019-05-06T05:45:27.247Z,8.96
2019-05-06T05:46:35.260Z,9.07
2019-05-06T05:47:43.695Z,9.04
2019-05-06T05:48:59.558Z,9.10
2019-05-06T05:50:28.123Z,9.01
2019-05-06T05:51:36.537Z,8.82
2019-05-06T05:52:45.056Z,8.90
2019-05-06T05:53:53.194Z,9.03
2019-05-06T05:55:02.724Z,9.09
2019-05-06T05:56:12.352Z,8.97
2019-05-06T05:57:22.602Z,9.00
2019-05-06T05:58:32.973Z,9.05
2019-05-06T05:59:42.244Z,8.96
2019-05-06T06:00:52.086Z,8.91
2019-05-06T06:02:00.463Z,8.84
2019-05-06T06:03:09.059Z,8.91
2019-05-06T06:04:17.286Z,8.90
2019-05-06T06:05:25.460Z,8.90
2019-05-06T06:06:33.809Z,9.00
2019-05-06T06:07:42.310Z,8.96
2019-05-06T06:08:52.353Z,8.89
2019-05-06T06:10:04.796Z,8.92
2019-05-06T06:11:14.796Z,9.02
2019-05-06T06:12:23.459Z,9.11
2019-05-06T06:13:32.070Z,9.07
2019-05-06T06:14:40.416Z,8.96
2019-05-06T06:15:52.809Z,9.00
2019-05-06T06:17:02.685Z,9.08
2019-05-06T06:18:25.777Z,9.20
2019-05-06T06:19:47.888Z,9.34
2019-05-06T06:21:17.580Z,9.25
2019-05-06T06:22:19.994Z,9.32
2019-05-06T06:23:32.473Z,9.31
2019-05-06T06:24:42.803Z,9.34
2019-05-06T06:25:52.771Z,9.35
2019-05-06T06:27:02.895Z,9.30
2019-05-06T06:28:11.960Z,9.28
2019-05-06T06:29:19.982Z,9.31
2019-05-06T06:30:29.627Z,9.30
2019-05-06T06:31:39.995Z,9.32
2019-05-06T06:32:48.454Z,9.40
2019-05-06T06:33:58.738Z,9.34
2019-05-06T06:35:14.167Z,9.28
2019-05-06T06:36:38.840Z,9.13
2019-05-06T06:37:48.671Z,9.17
2019-05-06T06:38:58.320Z,9.29
2019-05-06T06:40:13.084Z,9.30
2019-05-06T06:41:22.792Z,9.44
2019-05-06T06:42:33.362Z,9.47
2019-05-06T06:43:42.125Z,9.46
2019-05-06T06:44:52.074Z,9.37
2019-05-06T06:46:02.526Z,9.38
2019-05-06T06:47:12.427Z,9.33
2019-05-06T06:48:22.804Z,9.52
2019-05-06T06:49:32.738Z,9.47
2019-05-06T06:50:42.578Z,9.51
2019-05-06T06:51:53.246Z,9.49
2019-05-06T06:53:03.009Z,9.45
2019-05-06T06:54:12.295Z,9.50
2019-05-06T06:55:22.407Z,9.52
2019-05-06T06:56:32.982Z,9.38
2019-05-06T06:57:52.753Z,9.40
2019-05-06T06:59:16.632Z,9.54
2019-05-06T07:00:26.204Z,9.41
2019-05-06T07:01:36.750Z,9.40
2019-05-06T07:02:49.633Z,9.39
2019-05-06T07:04:06.796Z,9.49
2019-05-06T07:05:28.326Z,9.49
2019-05-06T07:06:42.335Z,9.48
2019-05-06T07:07:52.920Z,9.64
2019-05-06T07:09:00.259Z,9.62
2019-05-06T07:10:27.374Z,9.76
2019-05-06T07:11:35.483Z,9.66
2019-05-06T07:12:43.393Z,9.74
2019-05-06T07:13:55.624Z,9.71
2019-05-06T07:15:04.165Z,9.77
2019-05-06T07:16:12.390Z,9.75
2019-05-06T07:17:22.715Z,9.68
2019-05-06T07:18:30.288Z,9.65
2019-05-06T07:19:42.141Z,9.75
2019-05-06T07:20:54.296Z,9.86
2019-05-06T07:22:02.917Z,9.85
2019-05-06T07:23:28.897Z,9.76
2019-05-06T07:24:37.132Z,9.78
2019-05-06T07:25:45.439Z,9.82
2019-05-06T07:27:04.851Z,9.71
2019-05-06T07:28:13.592Z,9.74
2019-05-06T07:29:26.351Z,9.51
2019-05-06T07:30:33.269Z,9.50
2019-05-06T07:31:42.643Z,9.51
2019-05-06T07:32:52.741Z,9.46
2019-05-06T07:34:02.599Z,9.33
2019-05-06T07:35:12.887Z,9.24
2019-05-06T07:36:22.694Z,9.33
2019-05-06T07:37:32.640Z,9.33
2019-05-06T07:38:42.753Z,9.33
2019-05-06T07:39:52.947Z,9.27
2019-05-06T07:41:14.844Z,9.26
2019-05-06T07:42:23.056Z,9.15
2019-05-06T07:43:33.930Z,9.07
2019-05-06T07:45:00.133Z,9.22
2019-05-06T07:46:15.938Z,9.25
2019-05-06T07:47:33.166Z,9.15
2019-05-06T07:48:42.768Z,9.24
2019-05-06T07:49:53.045Z,9.22
2019-05-06T07:51:02.900Z,9.32
2019-05-06T07:52:12.348Z,9.39
2019-05-06T07:53:19.953Z,9.38
2019-05-06T07:54:27.895Z,9.43
2019-05-06T07:55:36.837Z,9.62
2019-05-06T07:56:45.052Z,9.65
2019-05-06T07:57:53.569Z,9.59
2019-05-06T07:59:03.277Z,9.43
2019-05-06T08:00:12.552Z,9.49
2019-05-06T08:01:25.502Z,9.59
2019-05-06T08:02:32.109Z,9.51
2019-05-06T08:03:42.605Z,9.51
2019-05-06T08:04:52.941Z,9.65
2019-05-06T08:06:02.523Z,9.75
2019-05-06T08:07:12.374Z,9.68
2019-05-06T08:08:19.931Z,9.72
2019-05-06T08:09:27.976Z,9.65
2019-05-06T08:10:35.975Z,9.58
2019-05-06T08:11:44.112Z,9.61
2019-05-06T08:12:52.735Z,9.54
2019-05-06T08:14:02.191Z,9.43
2019-05-06T08:15:12.699Z,9.47
2019-05-06T08:16:22.580Z,9.45
2019-05-06T08:17:33.056Z,9.31
2019-05-06T08:18:42.533Z,9.39
2019-05-06T08:19:52.957Z,9.43
2019-05-06T08:21:03.604Z,9.48
2019-05-06T08:22:16.036Z,9.52
2019-05-06T08:23:32.540Z,9.58
2019-05-06T08:24:42.276Z,9.37
2019-05-06T08:25:54.303Z,9.35
2019-05-06T08:27:02.903Z,9.47
2019-05-06T08:28:13.245Z,9.49
2019-05-06T08:29:22.491Z,9.50
2019-05-06T08:30:32.374Z,9.52
2019-05-06T08:31:42.945Z,9.40
2019-05-06T08:32:50.210Z,9.45
2019-05-06T08:33:58.913Z,9.42
2019-05-06T08:35:10.034Z,9.48
2019-05-06T08:36:29.016Z,9.45
2019-05-06T08:37:38.771Z,9.50
2019-05-06T08:39:02.539Z,9.62
2019-05-06T08:40:11.996Z,9.43
2019-05-06T08:41:22.641Z,9.61
2019-05-06T08:42:30.356Z,9.61
2019-05-06T08:43:38.406Z,9.48
2019-05-06T08:44:46.599Z,9.74
2019-05-06T08:45:54.961Z,9.84
2019-05-06T08:47:02.856Z,9.80
2019-05-06T08:48:12.842Z,9.84
2019-05-06T08:49:22.533Z,9.93
2019-05-06T08:50:36.219Z,9.94
2019-05-06T08:51:45.923Z,9.94
2019-05-06T08:53:06.131Z,9.94
2019-05-06T08:54:22.729Z,9.92
2019-05-06T08:55:32.720Z,9.92
2019-05-06T08:56:42.719Z,10.00
2019-05-06T08:57:52.729Z,10.10
2019-05-06T08:59:00.159Z,10.16
2019-05-06T09:00:08.567Z,10.19
2019-05-06T09:01:35.958Z,10.25
2019-05-06T09:02:46.164Z,10.28
2019-05-06T09:04:06.439Z,10.06
2019-05-06T09:05:03.461Z,10.03
2019-05-06T09:06:26.033Z,10.08
2019-05-06T09:07:21.426Z,10.23
2019-05-06T09:08:32.447Z,10.20
2019-05-06T09:09:42.110Z,10.34
2019-05-06T09:10:52.129Z,10.37
2019-05-06T09:12:02.487Z,10.39
2019-05-06T09:13:12.329Z,10.31
2019-05-06T09:14:22.928Z,10.26
2019-05-06T09:15:32.553Z,10.28
2019-05-06T09:16:43.780Z,10.36
2019-05-06T09:17:52.600Z,10.51
2019-05-06T09:19:04.363Z,10.54
2019-05-06T09:20:12.914Z,10.59
2019-05-06T09:21:22.676Z,10.71
2019-05-06T09:22:32.442Z,10.58
2019-05-06T09:23:42.206Z,10.67
2019-05-06T09:24:49.969Z,10.59
2019-05-06T09:25:58.352Z,10.47
2019-05-06T09:27:12.289Z,10.43
2019-05-06T09:28:33.753Z,10.47
2019-05-06T09:29:43.036Z,10.57
2019-05-06T09:30:53.011Z,10.64
2019-05-06T09:32:02.626Z,10.54
2019-05-06T09:33:12.836Z,10.44
2019-05-06T09:34:20.245Z,10.39
2019-05-06T09:35:28.451Z,10.45
2019-05-06T09:36:43.746Z,10.46
2019-05-06T09:37:46.188Z,10.40
2019-05-06T09:38:54.891Z,10.32
2019-05-06T09:40:03.185Z,10.41
2019-05-06T09:41:12.447Z,10.34
2019-05-06T09:42:23.070Z,10.45
2019-05-06T09:43:32.810Z,10.54
2019-05-06T09:44:42.675Z,10.52
2019-05-06T09:45:52.840Z,10.30
2019-05-06T09:47:02.403Z,10.23
2019-05-06T09:48:28.535Z,10.35
2019-05-06T09:49:38.374Z,10.46
2019-05-06T09:50:47.790Z,10.25
2019-05-06T09:51:56.223Z,10.29
2019-05-06T09:53:04.815Z,10.24
2019-05-06T09:54:23.355Z,10.19
2019-05-06T09:55:48.764Z,10.22
2019-05-06T09:56:58.651Z,10.17
2019-05-06T09:58:08.343Z,10.15
2019-05-06T09:59:16.743Z,10.27
2019-05-06T10:00:25.591Z,10.32
2019-05-06T10:01:33.597Z,10.41
2019-05-06T10:02:42.983Z,10.36
2019-05-06T10:03:52.934Z,10.37
2019-05-06T10:05:03.617Z,10.32
2019-05-06T10:06:13.115Z,10.38
2019-05-06T10:07:22.574Z,10.41
2019-05-06T10:08:32.326Z,10.24
2019-05-06T10:09:43.213Z,10.20
2019-05-06T10:10:58.570Z,10.26
2019-05-06T10:12:02.058Z,10.18
2019-05-06T10:13:09.977Z,10.31
2019-05-06T10:14:18.176Z,10.26
2019-05-06T10:15:26.810Z,10.20
2019-05-06T10:16:34.964Z,10.19
2019-05-06T10:17:43.170Z,10.16
2019-05-06T10:18:52.425Z,10.20
2019-05-06T10:20:02.896Z,10.22
2019-05-06T10:21:12.353Z,10.19
2019-05-06T10:22:20.163Z,10.39
2019-05-06T10:23:28.683Z,10.35
2019-05-06T10:24:36.928Z,10.29
2019-05-06T10:25:45.644Z,10.14
2019-05-06T10:26:58.143Z,10.20
2019-05-06T10:28:14.941Z,10.03
2019-05-06T10:29:24.733Z,9.89
2019-05-06T10:30:33.260Z,9.94
2019-05-06T10:31:43.167Z,10.03
2019-05-06T10:32:53.203Z,9.95
2019-05-06T10:34:13.969Z,10.01
2019-05-06T10:35:22.497Z,9.86
2019-05-06T10:36:36.751Z,9.92
2019-05-06T10:38:08.654Z,9.95
2019-05-06T10:39:20.029Z,9.93
2019-05-06T10:40:35.378Z,9.91
2019-05-06T10:41:47.952Z,9.88
2019-05-06T10:43:12.338Z,9.78
2019-05-06T10:44:32.867Z,9.86
2019-05-06T10:45:42.542Z,9.88
2019-05-06T10:46:52.447Z,9.97
2019-05-06T10:48:02.201Z,10.07
2019-05-06T10:49:09.843Z,10.05
2019-05-06T10:50:18.157Z,10.02
2019-05-06T10:51:38.060Z,10.00
2019-05-06T10:52:51.861Z,9.95
2019-05-06T10:53:59.860Z,9.98
2019-05-06T10:55:08.460Z,9.95
2019-05-06T10:56:27.905Z,9.91
2019-05-06T10:57:40.517Z,10.13
2019-05-06T10:58:48.505Z,10.10
2019-05-06T10:59:56.442Z,10.29
2019-05-06T11:01:16.044Z,10.31
2019-05-06T11:02:25.808Z,10.35
2019-05-06T11:03:33.868Z,10.31
2019-05-06T11:04:42.585Z,10.30
2019-05-06T11:05:53.443Z,10.26
2019-05-06T11:07:03.852Z,10.29
2019-05-06T11:08:10.914Z,10.39
2019-05-06T11:09:19.315Z,10.55
2019-05-06T11:10:33.973Z,10.57
2019-05-06T11:11:38.664Z,10.65
2019-05-06T11:12:46.764Z,10.64
2019-05-06T11:13:55.232Z,10.64
2019-05-06T11:15:03.749Z,10.72
2019-05-06T11:16:12.937Z,10.75
2019-05-06T11:17:23.275Z,10.93
2019-05-06T11:18:33.142Z,10.96
2019-05-06T11:19:42.635Z,10.98
2019-05-06T11:20:55.798Z,10.90
2019-05-06T11:22:00.473Z,10.98
2019-05-06T11:23:08.659Z,11.07
2019-05-06T11:24:17.279Z,11.09
2019-05-06T11:25:25.178Z,11.10
2019-05-06T11:26:33.357Z,11.19
2019-05-06T11:27:44.923Z,11.15
2019-05-06T11:28:53.122Z,11.15
2019-05-06T11:30:02.988Z,11.09
2019-05-06T11:31:18.544Z,11.15
2019-05-06T11:32:32.601Z,11.11
2019-05-06T11:33:49.268Z,11.21
2019-05-06T11:34:59.105Z,11.22
2019-05-06T11:36:25.030Z,11.22
2019-05-06T11:37:50.525Z,11.21
2019-05-06T11:38:56.789Z,11.40
2019-05-06T11:40:06.543Z,11.47
2019-05-06T11:41:14.597Z,11.65
2019-05-06T11:42:31.874Z,11.67
2019-05-06T11:43:32.714Z,11.84
2019-05-06T11:44:43.765Z,11.88
2019-05-06T11:45:52.163Z,11.89
2019-05-06T11:47:03.196Z,11.85
2019-05-06T11:48:14.301Z,11.89
2019-05-06T11:49:20.334Z,11.98
2019-05-06T11:50:28.256Z,11.90
2019-05-06T11:51:36.560Z,12.09
2019-05-06T11:52:44.557Z,12.07
2019-05-06T11:53:54.122Z,12.14
2019-05-06T11:55:02.528Z,12.27
2019-05-06T11:56:12.587Z,12.22
2019-05-06T11:57:20.600Z,12.20
2019-05-06T11:58:42.469Z,12.24
2019-05-06T11:59:52.578Z,12.18
2019-05-06T12:01:02.721Z,12.25
2019-05-06T12:02:15.686Z,12.12
2019-05-06T12:03:23.817Z,11.96
2019-05-06T12:04:32.939Z,11.99
2019-05-06T12:05:41.852Z,12.04
2019-05-06T12:06:52.448Z,11.97
2019-05-06T12:08:07.244Z,12.05
2019-05-06T12:09:16.021Z,12.09
2019-05-06T12:10:22.487Z,12.26
2019-05-06T12:11:30.898Z,12.33
2019-05-06T12:12:39.531Z,12.42
2019-05-06T12:13:48.107Z,12.45
2019-05-06T12:14:56.119Z,12.62
2019-05-06T12:16:04.536Z,12.58
2019-05-06T12:17:12.863Z,12.68
2019-05-06T12:18:23.085Z,12.53
2019-05-06T12:19:32.412Z,12.54
2019-05-06T12:20:42.598Z,12.46
2019-05-06T12:21:50.530Z,12.40
2019-05-06T12:22:58.837Z,12.30
2019-05-06T12:24:06.831Z,12.15
2019-05-06T12:25:15.766Z,12.04
2019-05-06T12:26:23.977Z,12.07
2019-05-06T12:27:47.648Z,12.23
2019-05-06T12:28:55.739Z,12.26
2019-05-06T12:30:06.032Z,12.29
2019-05-06T12:31:14.142Z,12.38
2019-05-06T12:32:26.697Z,12.38
2019-05-06T12:33:36.426Z,12.18
2019-05-06T12:34:44.657Z,12.03
2019-05-06T12:35:52.792Z,11.99
2019-05-06T12:37:02.733Z,12.06
2019-05-06T12:38:26.732Z,11.90
2019-05-06T12:39:23.932Z,11.85
2019-05-06T12:40:32.165Z,11.91
2019-05-06T12:41:53.265Z,12.01
2019-05-06T12:43:18.454Z,11.91
2019-05-06T12:44:26.793Z,11.80
2019-05-06T12:45:39.546Z,11.75
2019-05-06T12:46:52.900Z,11.75
2019-05-06T12:48:05.757Z,11.80
2019-05-06T12:49:13.862Z,11.95
2019-05-06T12:50:22.763Z,12.04
2019-05-06T12:51:32.314Z,12.09
2019-05-06T12:52:44.206Z,12.14
2019-05-06T12:53:52.929Z,12.12
2019-05-06T12:55:17.041Z,12.06
2019-05-06T12:56:12.551Z,12.03
2019-05-06T12:57:23.190Z,12.08
2019-05-06T12:58:31.760Z,12.02
2019-05-06T12:59:42.336Z,12.02
2019-05-06T13:00:49.927Z,12.00
2019-05-06T13:01:58.187Z,11.91
2019-05-06T13:03:06.501Z,11.78
2019-05-06T13:04:14.486Z,11.94
2019-05-06T13:05:22.496Z,12.00
2019-05-06T13:06:30.368Z,12.11
2019-05-06T13:07:41.981Z,12.13
2019-05-06T13:08:58.782Z,12.05
2019-05-06T13:10:02.819Z,12.12
2019-05-06T13:11:12.970Z,12.11
2019-05-06T13:12:23.177Z,12.16
2019-05-06T13:13:33.198Z,12.17
2019-05-06T13:14:43.071Z,12.20
2019-05-06T13:15:52.773Z,12.18
2019-05-06T13:17:02.709Z,12.15
2019-05-06T13:18:10.935Z,12.19
2019-05-06T13:19:19.255Z,12.26
2019-05-06T13:20:27.230Z,12.24
2019-05-06T13:21:35.481Z,12.14
2019-05-06T13:23:09.618Z,12.20
2019-05-06T13:24:12.243Z,11.93
2019-05-06T13:25:20.386Z,11.91
2019-05-06T13:26:28.530Z,12.15
2019-05-06T13:27:36.649Z,12.16
2019-05-06T13:28:46.735Z,12.16
2019-05-06T13:29:55.143Z,12.09
2019-05-06T13:31:15.884Z,12.07
2019-05-06T13:32:15.006Z,12.04
2019-05-06T13:33:34.016Z,12.06
2019-05-06T13:34:42.452Z,12.07
2019-05-06T13:35:52.561Z,12.01
2019-05-06T13:37:00.534Z,12.07
2019-05-06T13:38:08.704Z,12.25
2019-05-06T13:39:17.209Z,12.28
2019-05-06T13:40:27.206Z,12.30
2019-05-06T13:41:34.940Z,12.39
2019-05-06T13:42:44.691Z,12.37
2019-05-06T13:43:57.172Z,12.46
2019-05-06T13:45:07.217Z,12.54
2019-05-06T13:46:19.937Z,12.51
2019-05-06T13:47:45.735Z,12.47
2019-05-06T13:48:59.467Z,12.48
2019-05-06T13:50:09.295Z,12.64
2019-05-06T13:51:33.972Z,12.64
2019-05-06T13:52:43.628Z,12.65
2019-05-06T13:53:52.873Z,12.65
2019-05-06T13:55:02.581Z,12.70
2019-05-06T13:56:12.075Z,12.75
2019-05-06T13:57:20.703Z,12.69
2019-05-06T13:58:29.231Z,12.67
2019-05-06T13:59:37.412Z,12.72
2019-05-06T14:00:46.286Z,12.63
2019-05-06T14:01:55.959Z,12.37
2019-05-06T14:03:04.743Z,12.27
2019-05-06T14:04:14.537Z,12.26
2019-05-06T14:05:23.032Z,12.19
2019-05-06T14:06:32.345Z,12.24
2019-05-06T14:07:43.034Z,12.35
2019-05-06T14:08:52.839Z,12.29
2019-05-06T14:10:02.502Z,12.36
2019-05-06T14:11:10.274Z,12.42
2019-05-06T14:12:18.464Z,12.28
2019-05-06T14:13:26.476Z,12.47
2019-05-06T14:14:34.690Z,12.42
2019-05-06T14:15:42.754Z,12.46
2019-05-06T14:16:53.800Z,12.53
2019-05-06T14:18:02.606Z,12.56
2019-05-06T14:19:12.974Z,12.49
2019-05-06T14:20:22.016Z,12.39
2019-05-06T14:21:32.363Z,12.52
2019-05-06T14:22:40.426Z,12.59
2019-05-06T14:23:48.867Z,12.69
2019-05-06T14:25:01.065Z,12.64
2019-05-06T14:26:16.735Z,12.59
2019-05-06T14:27:24.928Z,12.59
2019-05-06T14:28:42.785Z,12.61
2019-05-06T14:30:04.341Z,12.54
2019-05-06T14:31:15.660Z,12.49
2019-05-06T14:32:23.967Z,12.43
2019-05-06T14:33:32.451Z,12.39
2019-05-06T14:34:43.114Z,12.39
2019-05-06T14:35:52.598Z,12.36
2019-05-06T14:37:00.327Z,12.41
2019-05-06T14:38:08.945Z,12.33
2019-05-06T14:39:23.680Z,12.27
2019-05-06T14:40:33.117Z,12.04
2019-05-06T14:41:44.534Z,12.18
2019-05-06T14:42:53.199Z,12.17
2019-05-06T14:44:04.943Z,12.24
2019-05-06T14:45:14.734Z,12.28
2019-05-06T14:46:23.494Z,12.32
2019-05-06T14:47:33.570Z,12.41
2019-05-06T14:48:43.678Z,12.51
2019-05-06T14:49:52.956Z,12.53
2019-05-06T14:51:02.465Z,12.60
2019-05-06T14:52:13.149Z,12.58
2019-05-06T14:53:23.746Z,12.48
2019-05-06T14:54:32.929Z,12.46
2019-05-06T14:55:40.671Z,12.50
2019-05-06T14:56:50.242Z,12.52
2019-05-06T14:57:58.527Z,12.46
2019-05-06T14:59:07.513Z,12.55
2019-05-06T15:00:17.841Z,12.57
2019-05-06T15:01:25.995Z,12.46
2019-05-06T15:02:34.160Z,12.36
2019-05-06T15:03:43.070Z,12.34
2019-05-06T15:04:53.512Z,12.46
2019-05-06T15:06:02.627Z,12.37
2019-05-06T15:07:12.753Z,12.28
2019-05-06T15:08:22.476Z,12.37
2019-05-06T15:09:32.970Z,12.43
2019-05-06T15:10:42.817Z,12.48
2019-05-06T15:11:51.174Z,12.37
2019-05-06T15:12:59.268Z,12.30
2019-05-06T15:14:07.329Z,12.39
2019-05-06T15:15:15.750Z,12.38
2019-05-06T15:16:23.728Z,12.50
2019-05-06T15:17:32.872Z,12.58
2019-05-06T15:18:42.350Z,12.56
2019-05-06T15:19:52.490Z,12.48
2019-05-06T15:21:28.664Z,12.42
2019-05-06T15:22:10.304Z,12.45
2019-05-06T15:23:18.450Z,12.55
2019-05-06T15:24:26.743Z,12.61
2019-05-06T15:25:34.952Z,12.50
2019-05-06T15:26:43.091Z,12.41
2019-05-06T15:27:53.164Z,12.52